sensor_id;sensor_type;location;lat;lon;timestamp;P1;durP1;ratioP1;P2;durP2;ratioP2
7485;SDS011;3784;54.098;9.998;2023-11-18T00:01:58;15.00;;;12.40;;
7485;SDS011;3784;54.098;9.998;2023-11-18T00:04:25;16.70;;;14.40;;
7485;SDS011;3784;54.098;9.998;2023-11-18T00:06:51;20.87;;;15.33;;
7485;SDS011;3784;54.098;9.998;2023-11-18T00:09:20;14.60;;;12.10;;
7485;SDS011;3784;54.098;9.998;2023-11-18T00:11:47;17.27;;;12.97;;
7485;SDS011;3784;54.098;9.998;2023-11-18T00:14:13;15.20;;;11.93;;
7485;SDS011;3784;54.098;9.998;2023-11-18T00:16:40;14.93;;;11.53;;
7485;SDS011;3784;54.098;9.998;2023-11-18T00:19:06;17.00;;;12.27;;
7485;SDS011;3784;54.098;9.998;2023-11-18T00:21:35;16.07;;;12.90;;
7485;SDS011;3784;54.098;9.998;2023-11-18T00:24:02;17.43;;;13.93;;
7485;SDS011;3784;54.098;9.998;2023-11-18T00:26:29;15.43;;;11.60;;
7485;SDS011;3784;54.098;9.998;2023-11-18T00:28:55;15.97;;;12.03;;
7485;SDS011;3784;54.098;9.998;2023-11-18T00:31:21;16.87;;;12.20;;
7485;SDS011;3784;54.098;9.998;2023-11-18T00:33:48;20.20;;;12.67;;
7485;SDS011;3784;54.098;9.998;2023-11-18T00:36:14;15.33;;;12.40;;
7485;SDS011;3784;54.098;9.998;2023-11-18T00:38:41;16.73;;;12.47;;
7485;SDS011;3784;54.098;9.998;2023-11-18T00:41:07;15.73;;;11.83;;
7485;SDS011;3784;54.098;9.998;2023-11-18T00:43:34;17.33;;;11.97;;
7485;SDS011;3784;54.098;9.998;2023-11-18T00:46:01;14.63;;;11.67;;
7485;SDS011;3784;54.098;9.998;2023-11-18T00:48:29;16.07;;;12.17;;
7485;SDS011;3784;54.098;9.998;2023-11-18T00:50:56;16.70;;;12.90;;
7485;SDS011;3784;54.098;9.998;2023-11-18T00:53:22;16.67;;;12.50;;
7485;SDS011;3784;54.098;9.998;2023-11-18T00:55:49;14.40;;;11.73;;
7485;SDS011;3784;54.098;9.998;2023-11-18T00:58:15;18.13;;;12.33;;
7485;SDS011;3784;54.098;9.998;2023-11-18T01:00:42;25.10;;;13.40;;
7485;SDS011;3784;54.098;9.998;2023-11-18T01:03:08;19.93;;;13.37;;
7485;SDS011;3784;54.098;9.998;2023-11-18T01:05:36;21.73;;;13.40;;
7485;SDS011;3784;54.098;9.998;2023-11-18T01:08:03;19.43;;;13.97;;
7485;SDS011;3784;54.098;9.998;2023-11-18T01:10:31;20.27;;;14.60;;
7485;SDS011;3784;54.098;9.998;2023-11-18T01:12:57;19.70;;;13.90;;
7485;SDS011;3784;54.098;9.998;2023-11-18T01:15:24;16.97;;;13.20;;
7485;SDS011;3784;54.098;9.998;2023-11-18T01:17:52;19.37;;;14.37;;
7485;SDS011;3784;54.098;9.998;2023-11-18T01:20:19;33.10;;;13.87;;
7485;SDS011;3784;54.098;9.998;2023-11-18T01:22:49;34.47;;;14.13;;
7485;SDS011;3784;54.098;9.998;2023-11-18T01:25:16;19.63;;;14.30;;
7485;SDS011;3784;54.098;9.998;2023-11-18T01:27:43;61.63;;;16.10;;
7485;SDS011;3784;54.098;9.998;2023-11-18T01:30:14;207.13;;;22.73;;
7485;SDS011;3784;54.098;9.998;2023-11-18T01:32:41;107.90;;;17.43;;
7485;SDS011;3784;54.098;9.998;2023-11-18T01:35:08;30.03;;;13.87;;
7485;SDS011;3784;54.098;9.998;2023-11-18T01:37:36;295.43;;;24.70;;
7485;SDS011;3784;54.098;9.998;2023-11-18T01:40:03;14.10;;;12.13;;
7485;SDS011;3784;54.098;9.998;2023-11-18T01:42:31;16.03;;;11.80;;
7485;SDS011;3784;54.098;9.998;2023-11-18T01:44:57;23.53;;;12.93;;
7485;SDS011;3784;54.098;9.998;2023-11-18T01:47:26;197.20;;;22.13;;
7485;SDS011;3784;54.098;9.998;2023-11-18T01:49:52;20.13;;;12.53;;
7485;SDS011;3784;54.098;9.998;2023-11-18T01:52:19;31.43;;;13.80;;
7485;SDS011;3784;54.098;9.998;2023-11-18T01:54:47;34.70;;;14.63;;
7485;SDS011;3784;54.098;9.998;2023-11-18T01:57:14;30.87;;;13.17;;
7485;SDS011;3784;54.098;9.998;2023-11-18T01:59:42;24.53;;;13.13;;
7485;SDS011;3784;54.098;9.998;2023-11-18T02:02:09;28.87;;;12.93;;
7485;SDS011;3784;54.098;9.998;2023-11-18T02:04:35;35.83;;;11.43;;
7485;SDS011;3784;54.098;9.998;2023-11-18T02:07:03;22.10;;;12.40;;
7485;SDS011;3784;54.098;9.998;2023-11-18T02:09:35;33.80;;;12.87;;
7485;SDS011;3784;54.098;9.998;2023-11-18T02:12:05;15.40;;;11.03;;
7485;SDS011;3784;54.098;9.998;2023-11-18T02:14:38;187.33;;;21.10;;
7485;SDS011;3784;54.098;9.998;2023-11-18T02:17:05;93.23;;;16.93;;
7485;SDS011;3784;54.098;9.998;2023-11-18T02:19:35;16.47;;;13.07;;
7485;SDS011;3784;54.098;9.998;2023-11-18T02:22:02;28.20;;;13.47;;
7485;SDS011;3784;54.098;9.998;2023-11-18T02:24:30;27.97;;;13.73;;
7485;SDS011;3784;54.098;9.998;2023-11-18T02:27:00;24.53;;;11.73;;
7485;SDS011;3784;54.098;9.998;2023-11-18T02:29:27;28.20;;;13.00;;
7485;SDS011;3784;54.098;9.998;2023-11-18T02:32:03;27.33;;;12.37;;
7485;SDS011;3784;54.098;9.998;2023-11-18T02:34:35;80.83;;;16.60;;
7485;SDS011;3784;54.098;9.998;2023-11-18T02:37:02;117.80;;;19.80;;
7485;SDS011;3784;54.098;9.998;2023-11-18T02:39:38;117.23;;;18.83;;
7485;SDS011;3784;54.098;9.998;2023-11-18T02:42:07;177.80;;;18.73;;
7485;SDS011;3784;54.098;9.998;2023-11-18T02:44:36;15.40;;;12.50;;
7485;SDS011;3784;54.098;9.998;2023-11-18T02:47:04;17.03;;;11.73;;
7485;SDS011;3784;54.098;9.998;2023-11-18T02:49:34;23.50;;;12.57;;
7485;SDS011;3784;54.098;9.998;2023-11-18T02:52:01;15.00;;;11.90;;
7485;SDS011;3784;54.098;9.998;2023-11-18T02:54:28;20.73;;;13.07;;
7485;SDS011;3784;54.098;9.998;2023-11-18T02:56:55;43.00;;;15.67;;
7485;SDS011;3784;54.098;9.998;2023-11-18T02:59:21;16.67;;;12.73;;
7485;SDS011;3784;54.098;9.998;2023-11-18T03:01:48;38.10;;;13.43;;
7485;SDS011;3784;54.098;9.998;2023-11-18T03:04:14;17.93;;;12.17;;
7485;SDS011;3784;54.098;9.998;2023-11-18T03:06:42;23.43;;;13.20;;
7485;SDS011;3784;54.098;9.998;2023-11-18T03:09:08;29.40;;;13.53;;
7485;SDS011;3784;54.098;9.998;2023-11-18T03:11:36;33.10;;;15.43;;
7485;SDS011;3784;54.098;9.998;2023-11-18T03:14:03;18.90;;;13.03;;
7485;SDS011;3784;54.098;9.998;2023-11-18T03:16:31;51.50;;;16.13;;
7485;SDS011;3784;54.098;9.998;2023-11-18T03:18:57;54.47;;;14.97;;
7485;SDS011;3784;54.098;9.998;2023-11-18T03:21:25;39.43;;;14.20;;
7485;SDS011;3784;54.098;9.998;2023-11-18T03:23:52;37.70;;;14.63;;
7485;SDS011;3784;54.098;9.998;2023-11-18T03:26:19;15.27;;;12.30;;
7485;SDS011;3784;54.098;9.998;2023-11-18T03:28:46;19.03;;;12.57;;
7485;SDS011;3784;54.098;9.998;2023-11-18T03:31:12;21.73;;;13.33;;
7485;SDS011;3784;54.098;9.998;2023-11-18T03:33:40;16.70;;;13.50;;
7485;SDS011;3784;54.098;9.998;2023-11-18T03:36:06;18.47;;;12.90;;
7485;SDS011;3784;54.098;9.998;2023-11-18T03:38:34;14.83;;;11.93;;
7485;SDS011;3784;54.098;9.998;2023-11-18T03:41:01;17.37;;;12.40;;
7485;SDS011;3784;54.098;9.998;2023-11-18T03:43:27;16.53;;;12.60;;
7485;SDS011;3784;54.098;9.998;2023-11-18T03:45:54;14.97;;;12.13;;
7485;SDS011;3784;54.098;9.998;2023-11-18T03:48:23;16.07;;;12.50;;
7485;SDS011;3784;54.098;9.998;2023-11-18T03:50:50;51.00;;;16.37;;
7485;SDS011;3784;54.098;9.998;2023-11-18T03:53:16;24.00;;;14.07;;
7485;SDS011;3784;54.098;9.998;2023-11-18T03:55:43;21.70;;;14.57;;
7485;SDS011;3784;54.098;9.998;2023-11-18T03:58:09;18.43;;;13.90;;
7485;SDS011;3784;54.098;9.998;2023-11-18T04:00:35;21.17;;;14.30;;
7485;SDS011;3784;54.098;9.998;2023-11-18T04:03:02;20.20;;;13.87;;
7485;SDS011;3784;54.098;9.998;2023-11-18T04:05:29;18.57;;;13.67;;
7485;SDS011;3784;54.098;9.998;2023-11-18T04:07:58;20.30;;;12.70;;
7485;SDS011;3784;54.098;9.998;2023-11-18T04:10:26;25.40;;;14.43;;
7485;SDS011;3784;54.098;9.998;2023-11-18T04:12:53;18.10;;;12.90;;
7485;SDS011;3784;54.098;9.998;2023-11-18T04:15:19;23.83;;;14.77;;
7485;SDS011;3784;54.098;9.998;2023-11-18T04:17:46;25.70;;;14.87;;
7485;SDS011;3784;54.098;9.998;2023-11-18T04:20:12;19.77;;;14.40;;
7485;SDS011;3784;54.098;9.998;2023-11-18T04:22:42;16.63;;;12.90;;
7485;SDS011;3784;54.098;9.998;2023-11-18T04:25:09;44.00;;;17.03;;
7485;SDS011;3784;54.098;9.998;2023-11-18T04:27:37;53.23;;;16.70;;
7485;SDS011;3784;54.098;9.998;2023-11-18T04:30:12;47.83;;;17.17;;
7485;SDS011;3784;54.098;9.998;2023-11-18T04:32:39;96.97;;;20.53;;
7485;SDS011;3784;54.098;9.998;2023-11-18T04:35:08;58.13;;;18.67;;
7485;SDS011;3784;54.098;9.998;2023-11-18T04:37:36;29.00;;;16.70;;
7485;SDS011;3784;54.098;9.998;2023-11-18T04:40:03;29.00;;;15.57;;
7485;SDS011;3784;54.098;9.998;2023-11-18T04:42:30;26.60;;;15.87;;
7485;SDS011;3784;54.098;9.998;2023-11-18T04:44:57;16.73;;;13.20;;
7485;SDS011;3784;54.098;9.998;2023-11-18T04:47:23;24.00;;;14.67;;
7485;SDS011;3784;54.098;9.998;2023-11-18T04:49:51;20.07;;;14.03;;
7485;SDS011;3784;54.098;9.998;2023-11-18T04:52:18;18.37;;;12.93;;
7485;SDS011;3784;54.098;9.998;2023-11-18T04:54:45;20.23;;;13.30;;
7485;SDS011;3784;54.098;9.998;2023-11-18T04:57:14;16.97;;;12.87;;
7485;SDS011;3784;54.098;9.998;2023-11-18T04:59:43;18.67;;;13.37;;
7485;SDS011;3784;54.098;9.998;2023-11-18T05:02:10;19.70;;;13.97;;
7485;SDS011;3784;54.098;9.998;2023-11-18T05:04:36;15.03;;;12.37;;
7485;SDS011;3784;54.098;9.998;2023-11-18T05:07:03;16.87;;;13.20;;
7485;SDS011;3784;54.098;9.998;2023-11-18T05:09:30;18.43;;;13.83;;
7485;SDS011;3784;54.098;9.998;2023-11-18T05:11:57;22.07;;;14.07;;
7485;SDS011;3784;54.098;9.998;2023-11-18T05:14:24;17.10;;;12.63;;
7485;SDS011;3784;54.098;9.998;2023-11-18T05:16:52;16.67;;;13.17;;
7485;SDS011;3784;54.098;9.998;2023-11-18T05:19:18;20.03;;;14.03;;
7485;SDS011;3784;54.098;9.998;2023-11-18T05:21:45;21.00;;;14.67;;
7485;SDS011;3784;54.098;9.998;2023-11-18T05:24:15;19.40;;;13.37;;
7485;SDS011;3784;54.098;9.998;2023-11-18T05:26:41;18.33;;;13.70;;
7485;SDS011;3784;54.098;9.998;2023-11-18T05:29:08;20.23;;;14.17;;
7485;SDS011;3784;54.098;9.998;2023-11-18T05:31:34;21.80;;;15.03;;
7485;SDS011;3784;54.098;9.998;2023-11-18T05:34:02;18.87;;;13.43;;
7485;SDS011;3784;54.098;9.998;2023-11-18T05:36:29;16.23;;;12.87;;
7485;SDS011;3784;54.098;9.998;2023-11-18T05:39:03;17.43;;;13.20;;
7485;SDS011;3784;54.098;9.998;2023-11-18T05:41:31;18.97;;;13.50;;
7485;SDS011;3784;54.098;9.998;2023-11-18T05:43:58;19.33;;;13.23;;
7485;SDS011;3784;54.098;9.998;2023-11-18T05:46:24;15.67;;;12.80;;
7485;SDS011;3784;54.098;9.998;2023-11-18T05:48:54;14.80;;;12.53;;
7485;SDS011;3784;54.098;9.998;2023-11-18T05:51:24;18.00;;;13.83;;
7485;SDS011;3784;54.098;9.998;2023-11-18T05:53:52;17.70;;;13.03;;
7485;SDS011;3784;54.098;9.998;2023-11-18T05:56:19;16.60;;;13.07;;
7485;SDS011;3784;54.098;9.998;2023-11-18T05:58:47;26.30;;;12.60;;
7485;SDS011;3784;54.098;9.998;2023-11-18T06:01:13;14.10;;;12.17;;
7485;SDS011;3784;54.098;9.998;2023-11-18T06:03:41;18.70;;;13.43;;
7485;SDS011;3784;54.098;9.998;2023-11-18T06:06:09;21.00;;;14.63;;
7485;SDS011;3784;54.098;9.998;2023-11-18T06:08:36;19.43;;;14.97;;
7485;SDS011;3784;54.098;9.998;2023-11-18T06:11:07;21.37;;;14.73;;
7485;SDS011;3784;54.098;9.998;2023-11-18T06:13:50;21.17;;;15.90;;
7485;SDS011;3784;54.098;9.998;2023-11-18T06:16:21;15.90;;;12.90;;
7485;SDS011;3784;54.098;9.998;2023-11-18T06:18:49;18.77;;;14.20;;
7485;SDS011;3784;54.098;9.998;2023-11-18T06:21:18;18.23;;;14.57;;
7485;SDS011;3784;54.098;9.998;2023-11-18T06:23:50;18.83;;;14.43;;
7485;SDS011;3784;54.098;9.998;2023-11-18T06:26:17;16.53;;;12.53;;
7485;SDS011;3784;54.098;9.998;2023-11-18T06:28:47;15.87;;;13.23;;
7485;SDS011;3784;54.098;9.998;2023-11-18T06:31:15;17.57;;;12.90;;
7485;SDS011;3784;54.098;9.998;2023-11-18T06:33:42;14.97;;;12.77;;
7485;SDS011;3784;54.098;9.998;2023-11-18T06:38:39;13.70;;;11.43;;
7485;SDS011;3784;54.098;9.998;2023-11-18T06:41:06;15.37;;;12.10;;
7485;SDS011;3784;54.098;9.998;2023-11-18T06:43:42;15.10;;;12.13;;
7485;SDS011;3784;54.098;9.998;2023-11-18T06:46:30;16.40;;;12.77;;
7485;SDS011;3784;54.098;9.998;2023-11-18T06:49:01;16.23;;;13.17;;
7485;SDS011;3784;54.098;9.998;2023-11-18T06:51:33;17.00;;;13.20;;
7485;SDS011;3784;54.098;9.998;2023-11-18T06:54:04;17.87;;;12.70;;
7485;SDS011;3784;54.098;9.998;2023-11-18T06:56:36;22.63;;;13.87;;
7485;SDS011;3784;54.098;9.998;2023-11-18T06:59:06;20.13;;;13.63;;
7485;SDS011;3784;54.098;9.998;2023-11-18T07:01:34;17.80;;;13.30;;
7485;SDS011;3784;54.098;9.998;2023-11-18T07:04:02;19.03;;;13.90;;
7485;SDS011;3784;54.098;9.998;2023-11-18T07:06:28;20.17;;;14.50;;
7485;SDS011;3784;54.098;9.998;2023-11-18T07:08:55;19.70;;;13.40;;
7485;SDS011;3784;54.098;9.998;2023-11-18T07:11:26;20.03;;;14.33;;
7485;SDS011;3784;54.098;9.998;2023-11-18T07:13:52;17.97;;;13.97;;
7485;SDS011;3784;54.098;9.998;2023-11-18T07:16:25;20.47;;;13.87;;
7485;SDS011;3784;54.098;9.998;2023-11-18T07:18:52;21.50;;;14.60;;
7485;SDS011;3784;54.098;9.998;2023-11-18T07:21:18;29.00;;;14.70;;
7485;SDS011;3784;54.098;9.998;2023-11-18T07:23:46;24.37;;;16.03;;
7485;SDS011;3784;54.098;9.998;2023-11-18T07:26:12;37.00;;;16.30;;
7485;SDS011;3784;54.098;9.998;2023-11-18T07:28:40;25.97;;;16.27;;
7485;SDS011;3784;54.098;9.998;2023-11-18T07:31:07;27.53;;;17.60;;
7485;SDS011;3784;54.098;9.998;2023-11-18T07:33:34;31.57;;;20.93;;
7485;SDS011;3784;54.098;9.998;2023-11-18T07:36:00;29.13;;;21.53;;
7485;SDS011;3784;54.098;9.998;2023-11-18T07:38:29;32.00;;;21.50;;
7485;SDS011;3784;54.098;9.998;2023-11-18T07:40:57;40.53;;;28.37;;
7485;SDS011;3784;54.098;9.998;2023-11-18T07:43:23;25.37;;;19.37;;
7485;SDS011;3784;54.098;9.998;2023-11-18T07:45:50;22.57;;;16.83;;
7485;SDS011;3784;54.098;9.998;2023-11-18T07:48:18;22.23;;;15.80;;
7485;SDS011;3784;54.098;9.998;2023-11-18T07:50:46;19.80;;;15.43;;
7485;SDS011;3784;54.098;9.998;2023-11-18T07:53:13;18.60;;;14.60;;
7485;SDS011;3784;54.098;9.998;2023-11-18T07:55:40;20.27;;;15.37;;
7485;SDS011;3784;54.098;9.998;2023-11-18T07:58:06;16.57;;;13.13;;
7485;SDS011;3784;54.098;9.998;2023-11-18T08:00:37;16.43;;;13.40;;
7485;SDS011;3784;54.098;9.998;2023-11-18T08:03:09;17.03;;;13.37;;
7485;SDS011;3784;54.098;9.998;2023-11-18T08:05:39;15.57;;;13.03;;
7485;SDS011;3784;54.098;9.998;2023-11-18T08:08:07;22.53;;;14.53;;
7485;SDS011;3784;54.098;9.998;2023-11-18T08:10:34;18.00;;;13.97;;
7485;SDS011;3784;54.098;9.998;2023-11-18T08:13:04;18.20;;;13.90;;
7485;SDS011;3784;54.098;9.998;2023-11-18T08:15:33;15.67;;;13.50;;
7485;SDS011;3784;54.098;9.998;2023-11-18T08:18:08;17.03;;;13.03;;
7485;SDS011;3784;54.098;9.998;2023-11-18T08:20:38;18.03;;;13.90;;
7485;SDS011;3784;54.098;9.998;2023-11-18T08:23:05;16.43;;;13.50;;
7485;SDS011;3784;54.098;9.998;2023-11-18T08:25:31;16.73;;;14.30;;
7485;SDS011;3784;54.098;9.998;2023-11-18T08:28:00;14.17;;;12.67;;
7485;SDS011;3784;54.098;9.998;2023-11-18T08:30:30;17.83;;;13.83;;
7485;SDS011;3784;54.098;9.998;2023-11-18T08:32:56;14.73;;;13.10;;
7485;SDS011;3784;54.098;9.998;2023-11-18T08:35:24;16.67;;;14.10;;
7485;SDS011;3784;54.098;9.998;2023-11-18T08:37:51;15.27;;;12.67;;
7485;SDS011;3784;54.098;9.998;2023-11-18T08:40:18;13.87;;;12.27;;
7485;SDS011;3784;54.098;9.998;2023-11-18T08:42:48;15.10;;;12.67;;
7485;SDS011;3784;54.098;9.998;2023-11-18T08:45:21;17.47;;;13.73;;
7485;SDS011;3784;54.098;9.998;2023-11-18T08:47:54;13.20;;;11.80;;
7485;SDS011;3784;54.098;9.998;2023-11-18T08:50:21;13.53;;;12.13;;
7485;SDS011;3784;54.098;9.998;2023-11-18T08:52:51;13.07;;;11.67;;
7485;SDS011;3784;54.098;9.998;2023-11-18T08:55:24;13.70;;;12.30;;
7485;SDS011;3784;54.098;9.998;2023-11-18T08:58:06;14.33;;;12.67;;
7485;SDS011;3784;54.098;9.998;2023-11-18T09:00:47;13.67;;;11.90;;
7485;SDS011;3784;54.098;9.998;2023-11-18T09:03:15;12.27;;;10.93;;
7485;SDS011;3784;54.098;9.998;2023-11-18T09:05:57;12.93;;;11.37;;
7485;SDS011;3784;54.098;9.998;2023-11-18T09:08:25;14.33;;;11.87;;
7485;SDS011;3784;54.098;9.998;2023-11-18T09:10:58;12.73;;;11.37;;
7485;SDS011;3784;54.098;9.998;2023-11-18T09:13:26;13.43;;;12.03;;
7485;SDS011;3784;54.098;9.998;2023-11-18T09:15:56;14.43;;;12.53;;
7485;SDS011;3784;54.098;9.998;2023-11-18T09:18:23;14.57;;;13.00;;
7485;SDS011;3784;54.098;9.998;2023-11-18T09:20:51;15.47;;;13.40;;
7485;SDS011;3784;54.098;9.998;2023-11-18T09:23:19;14.27;;;12.33;;
7485;SDS011;3784;54.098;9.998;2023-11-18T09:25:45;13.70;;;11.47;;
7485;SDS011;3784;54.098;9.998;2023-11-18T09:28:14;12.77;;;11.53;;
7485;SDS011;3784;54.098;9.998;2023-11-18T09:30:45;11.53;;;10.23;;
7485;SDS011;3784;54.098;9.998;2023-11-18T09:33:24;11.37;;;9.83;;
7485;SDS011;3784;54.098;9.998;2023-11-18T09:36:05;11.80;;;10.33;;
7485;SDS011;3784;54.098;9.998;2023-11-18T09:38:38;11.70;;;10.60;;
7485;SDS011;3784;54.098;9.998;2023-11-18T09:41:07;11.33;;;10.20;;
7485;SDS011;3784;54.098;9.998;2023-11-18T09:43:40;11.40;;;9.47;;
7485;SDS011;3784;54.098;9.998;2023-11-18T09:46:15;10.67;;;9.57;;
7485;SDS011;3784;54.098;9.998;2023-11-18T09:48:45;11.03;;;9.10;;
7485;SDS011;3784;54.098;9.998;2023-11-18T09:51:29;10.33;;;9.23;;
7485;SDS011;3784;54.098;9.998;2023-11-18T09:54:04;9.43;;;8.50;;
7485;SDS011;3784;54.098;9.998;2023-11-18T09:56:56;13.33;;;8.57;;
7485;SDS011;3784;54.098;9.998;2023-11-18T09:59:38;8.37;;;7.57;;
7485;SDS011;3784;54.098;9.998;2023-11-18T10:02:25;7.83;;;7.07;;
7485;SDS011;3784;54.098;9.998;2023-11-18T10:04:52;9.57;;;6.50;;
7485;SDS011;3784;54.098;9.998;2023-11-18T10:07:24;6.53;;;5.93;;
7485;SDS011;3784;54.098;9.998;2023-11-18T10:09:56;6.13;;;5.60;;
7485;SDS011;3784;54.098;9.998;2023-11-18T10:12:23;5.77;;;5.27;;
7485;SDS011;3784;54.098;9.998;2023-11-18T10:14:52;5.70;;;5.20;;
7485;SDS011;3784;54.098;9.998;2023-11-18T10:17:19;5.70;;;5.20;;
7485;SDS011;3784;54.098;9.998;2023-11-18T10:19:55;5.27;;;4.77;;
7485;SDS011;3784;54.098;9.998;2023-11-18T10:22:24;4.53;;;3.90;;
7485;SDS011;3784;54.098;9.998;2023-11-18T10:24:52;3.47;;;3.17;;
7485;SDS011;3784;54.098;9.998;2023-11-18T10:27:24;3.20;;;2.93;;
7485;SDS011;3784;54.098;9.998;2023-11-18T10:29:57;3.33;;;3.03;;
7485;SDS011;3784;54.098;9.998;2023-11-18T10:32:28;3.23;;;2.63;;
7485;SDS011;3784;54.098;9.998;2023-11-18T10:34:55;3.43;;;3.13;;
7485;SDS011;3784;54.098;9.998;2023-11-18T10:37:23;3.37;;;3.07;;
7485;SDS011;3784;54.098;9.998;2023-11-18T10:39:55;3.50;;;3.20;;
7485;SDS011;3784;54.098;9.998;2023-11-18T10:42:26;3.47;;;3.17;;
7485;SDS011;3784;54.098;9.998;2023-11-18T10:44:57;2.90;;;2.60;;
7485;SDS011;3784;54.098;9.998;2023-11-18T10:47:25;3.10;;;2.90;;
7485;SDS011;3784;54.098;9.998;2023-11-18T10:49:52;2.63;;;2.43;;
7485;SDS011;3784;54.098;9.998;2023-11-18T10:52:19;2.83;;;2.63;;
7485;SDS011;3784;54.098;9.998;2023-11-18T10:54:53;2.60;;;2.40;;
7485;SDS011;3784;54.098;9.998;2023-11-18T10:57:22;3.27;;;2.37;;
7485;SDS011;3784;54.098;9.998;2023-11-18T11:00:00;2.90;;;2.70;;
7485;SDS011;3784;54.098;9.998;2023-11-18T11:02:39;2.70;;;2.50;;
7485;SDS011;3784;54.098;9.998;2023-11-18T11:05:08;2.50;;;2.30;;
7485;SDS011;3784;54.098;9.998;2023-11-18T11:07:47;2.50;;;2.30;;
7485;SDS011;3784;54.098;9.998;2023-11-18T11:10:15;2.87;;;2.67;;
7485;SDS011;3784;54.098;9.998;2023-11-18T11:12:50;2.57;;;2.37;;
7485;SDS011;3784;54.098;9.998;2023-11-18T11:15:22;2.63;;;2.43;;
7485;SDS011;3784;54.098;9.998;2023-11-18T11:17:51;2.70;;;2.50;;
7485;SDS011;3784;54.098;9.998;2023-11-18T11:20:22;2.90;;;2.70;;
7485;SDS011;3784;54.098;9.998;2023-11-18T11:22:58;2.80;;;2.60;;
7485;SDS011;3784;54.098;9.998;2023-11-18T11:25:37;3.40;;;3.10;;
7485;SDS011;3784;54.098;9.998;2023-11-18T11:28:11;3.20;;;3.00;;
7485;SDS011;3784;54.098;9.998;2023-11-18T11:30:55;2.93;;;2.63;;
7485;SDS011;3784;54.098;9.998;2023-11-18T11:33:28;2.70;;;2.50;;
7485;SDS011;3784;54.098;9.998;2023-11-18T11:36:11;2.60;;;2.40;;
7485;SDS011;3784;54.098;9.998;2023-11-18T11:38:38;2.77;;;2.57;;
7485;SDS011;3784;54.098;9.998;2023-11-18T11:41:05;2.70;;;2.50;;
7485;SDS011;3784;54.098;9.998;2023-11-18T11:43:34;2.97;;;2.77;;
7485;SDS011;3784;54.098;9.998;2023-11-18T11:46:01;3.30;;;3.00;;
7485;SDS011;3784;54.098;9.998;2023-11-18T11:48:37;3.10;;;2.90;;
7485;SDS011;3784;54.098;9.998;2023-11-18T11:54:05;2.60;;;2.40;;
7485;SDS011;3784;54.098;9.998;2023-11-18T11:56:43;3.63;;;2.60;;
7485;SDS011;3784;54.098;9.998;2023-11-18T11:59:12;2.80;;;2.60;;
7485;SDS011;3784;54.098;9.998;2023-11-18T12:01:42;3.17;;;2.87;;
7485;SDS011;3784;54.098;9.998;2023-11-18T12:04:16;2.57;;;2.37;;
7485;SDS011;3784;54.098;9.998;2023-11-18T12:06:54;3.07;;;2.47;;
7485;SDS011;3784;54.098;9.998;2023-11-18T12:09:37;2.70;;;2.50;;
7485;SDS011;3784;54.098;9.998;2023-11-18T12:12:16;3.20;;;2.90;;
7485;SDS011;3784;54.098;9.998;2023-11-18T12:14:48;2.90;;;2.70;;
7485;SDS011;3784;54.098;9.998;2023-11-18T12:17:16;3.37;;;3.13;;
7485;SDS011;3784;54.098;9.998;2023-11-18T12:19:50;4.83;;;4.43;;
7485;SDS011;3784;54.098;9.998;2023-11-18T12:22:25;9.33;;;3.23;;
7485;SDS011;3784;54.098;9.998;2023-11-18T12:27:42;7.47;;;6.77;;
7485;SDS011;3784;54.098;9.998;2023-11-18T12:33:03;4.53;;;4.13;;
7485;SDS011;3784;54.098;9.998;2023-11-18T12:40:55;3.73;;;3.43;;
7485;SDS011;3784;54.098;9.998;2023-11-18T12:43:33;3.23;;;2.97;;
7485;SDS011;3784;54.098;9.998;2023-11-18T12:46:36;3.77;;;3.47;;
7485;SDS011;3784;54.098;9.998;2023-11-18T12:49:08;4.50;;;4.07;;
7485;SDS011;3784;54.098;9.998;2023-11-18T12:51:42;5.40;;;4.90;;
7485;SDS011;3784;54.098;9.998;2023-11-18T12:54:10;4.60;;;4.20;;
7485;SDS011;3784;54.098;9.998;2023-11-18T12:56:38;3.93;;;3.63;;
7485;SDS011;3784;54.098;9.998;2023-11-18T12:59:05;5.03;;;3.57;;
7485;SDS011;3784;54.098;9.998;2023-11-18T13:01:33;3.73;;;3.43;;
7485;SDS011;3784;54.098;9.998;2023-11-18T13:04:02;3.70;;;3.37;;
7485;SDS011;3784;54.098;9.998;2023-11-18T13:06:29;4.97;;;3.70;;
7485;SDS011;3784;54.098;9.998;2023-11-18T13:08:56;3.63;;;3.33;;
7485;SDS011;3784;54.098;9.998;2023-11-18T13:11:24;4.67;;;4.27;;
7485;SDS011;3784;54.098;9.998;2023-11-18T13:13:51;5.00;;;4.60;;
7485;SDS011;3784;54.098;9.998;2023-11-18T13:16:18;5.83;;;4.80;;
7485;SDS011;3784;54.098;9.998;2023-11-18T13:18:45;4.83;;;4.43;;
7485;SDS011;3784;54.098;9.998;2023-11-18T13:21:16;4.87;;;4.10;;
7485;SDS011;3784;54.098;9.998;2023-11-18T13:23:46;5.13;;;4.70;;
7485;SDS011;3784;54.098;9.998;2023-11-18T13:26:14;5.07;;;4.67;;
7485;SDS011;3784;54.098;9.998;2023-11-18T13:28:41;5.93;;;5.33;;
7485;SDS011;3784;54.098;9.998;2023-11-18T13:31:10;5.20;;;4.80;;
7485;SDS011;3784;54.098;9.998;2023-11-18T13:33:37;5.20;;;4.70;;
7485;SDS011;3784;54.098;9.998;2023-11-18T13:36:05;4.60;;;4.20;;
7485;SDS011;3784;54.098;9.998;2023-11-18T13:38:32;4.03;;;3.63;;
7485;SDS011;3784;54.098;9.998;2023-11-18T13:40:59;5.33;;;4.80;;
7485;SDS011;3784;54.098;9.998;2023-11-18T13:44:03;4.77;;;4.37;;
7485;SDS011;3784;54.098;9.998;2023-11-18T13:46:24;7.50;;;6.07;;
7485;SDS011;3784;54.098;9.998;2023-11-18T13:48:52;5.70;;;5.20;;
7485;SDS011;3784;54.098;9.998;2023-11-18T13:51:18;7.23;;;5.30;;
7485;SDS011;3784;54.098;9.998;2023-11-18T13:53:46;6.90;;;6.07;;
7485;SDS011;3784;54.098;9.998;2023-11-18T13:56:13;6.23;;;5.43;;
7485;SDS011;3784;54.098;9.998;2023-11-18T13:58:42;7.00;;;6.20;;
7485;SDS011;3784;54.098;9.998;2023-11-18T14:01:10;4.60;;;4.20;;
7485;SDS011;3784;54.098;9.998;2023-11-18T14:03:39;4.47;;;4.07;;
7485;SDS011;3784;54.098;9.998;2023-11-18T14:06:07;8.63;;;7.27;;
7485;SDS011;3784;54.098;9.998;2023-11-18T14:08:37;4.43;;;4.03;;
7485;SDS011;3784;54.098;9.998;2023-11-18T14:11:04;4.13;;;3.83;;
7485;SDS011;3784;54.098;9.998;2023-11-18T14:13:41;3.83;;;3.53;;
7485;SDS011;3784;54.098;9.998;2023-11-18T14:16:07;4.00;;;3.60;;
7485;SDS011;3784;54.098;9.998;2023-11-18T14:18:36;4.30;;;3.90;;
7485;SDS011;3784;54.098;9.998;2023-11-18T14:21:03;6.10;;;5.50;;
7485;SDS011;3784;54.098;9.998;2023-11-18T14:23:31;5.47;;;4.60;;
7485;SDS011;3784;54.098;9.998;2023-11-18T14:25:58;5.00;;;4.50;;
7485;SDS011;3784;54.098;9.998;2023-11-18T14:28:24;4.53;;;4.13;;
7485;SDS011;3784;54.098;9.998;2023-11-18T14:30:52;5.07;;;4.60;;
7485;SDS011;3784;54.098;9.998;2023-11-18T14:33:19;5.47;;;4.97;;
7485;SDS011;3784;54.098;9.998;2023-11-18T14:35:45;4.13;;;3.73;;
7485;SDS011;3784;54.098;9.998;2023-11-18T14:38:12;4.53;;;4.13;;
7485;SDS011;3784;54.098;9.998;2023-11-18T14:40:39;6.10;;;5.03;;
7485;SDS011;3784;54.098;9.998;2023-11-18T14:43:07;5.73;;;3.80;;
7485;SDS011;3784;54.098;9.998;2023-11-18T14:45:34;4.60;;;4.20;;
7485;SDS011;3784;54.098;9.998;2023-11-18T14:48:01;4.23;;;3.80;;
7485;SDS011;3784;54.098;9.998;2023-11-18T14:50:28;5.57;;;5.07;;
7485;SDS011;3784;54.098;9.998;2023-11-18T14:52:55;5.13;;;4.63;;
7485;SDS011;3784;54.098;9.998;2023-11-18T14:55:26;4.30;;;3.90;;
7485;SDS011;3784;54.098;9.998;2023-11-18T14:57:53;8.57;;;6.47;;
7485;SDS011;3784;54.098;9.998;2023-11-18T15:00:19;5.70;;;5.20;;
7485;SDS011;3784;54.098;9.998;2023-11-18T15:02:48;5.30;;;4.80;;
7485;SDS011;3784;54.098;9.998;2023-11-18T15:05:16;5.13;;;4.57;;
7485;SDS011;3784;54.098;9.998;2023-11-18T15:07:48;5.10;;;4.60;;
7485;SDS011;3784;54.098;9.998;2023-11-18T15:10:16;5.50;;;4.60;;
7485;SDS011;3784;54.098;9.998;2023-11-18T15:12:53;5.90;;;5.40;;
7485;SDS011;3784;54.098;9.998;2023-11-18T15:15:25;6.03;;;5.00;;
7485;SDS011;3784;54.098;9.998;2023-11-18T15:17:58;6.33;;;5.73;;
7485;SDS011;3784;54.098;9.998;2023-11-18T15:20:26;5.40;;;4.90;;
7485;SDS011;3784;54.098;9.998;2023-11-18T15:22:52;6.20;;;5.60;;
7485;SDS011;3784;54.098;9.998;2023-11-18T15:25:20;5.33;;;4.83;;
7485;SDS011;3784;54.098;9.998;2023-11-18T15:27:46;6.40;;;5.80;;